Historique des stations

Station météo de Villegouin

Altitude de la station : 151 m







Données météorologiques pour le 24/09/2022
Date
Heure
Températures Humidité Point de rosée Vitesse
du vent
Direction Rafales Windchill Pression Pluviométrie
Cumul
Date
Heure
Températures Humidité Point de rosée Vitesse
du vent
Direction Rafales Windchill Pression Pluviométrie
Cumul
24/09/2022 21:0013.9 °C93 %12.8 °C-SSE19 km/h13.9 1013 hPa8.8 mm
24/09/2022 20:4814.0 °C93 %12.8 °C---13.9 1013 hPa8.8 mm
24/09/2022 20:4514.1 °C93 %12.8 °C-SSE19 km/h13.9 1013 hPa8.8 mm
24/09/2022 20:3314.3 °C93 %13.3 °C-SSE2 km/h14.4 1013 hPa8.8 mm
24/09/2022 20:3014.3 °C93 %13.3 °C-SSE19 km/h14.4 1013 hPa8.8 mm
24/09/2022 20:1814.6 °C93 %13.3 °C-SSE2 km/h14.4 1013 hPa8.8 mm
24/09/2022 20:1514.6 °C92 %13.3 °C-SSE19 km/h14.4 1013 hPa8.8 mm
24/09/2022 20:0314.6 °C92 %13.3 °C-SSE2 km/h14.4 1013 hPa8.8 mm
24/09/2022 20:0014.6 °C92 %13.3 °C-SSE19 km/h14.4 1013 hPa8.8 mm
24/09/2022 19:4814.7 °C91 %13.3 °C---15.0 1013 hPa8.8 mm
24/09/2022 19:4514.8 °C91 %13.3 °C-SSE19 km/h15.0 1013 hPa8.6 mm
24/09/2022 19:3314.8 °C91 %13.3 °C3 km/hSSE5 km/h15.0 1013 hPa8.4 mm
24/09/2022 19:3014.8 °C91 %13.3 °C-SO19 km/h15.0 1013 hPa8.4 mm
24/09/2022 19:1814.8 °C91 %13.3 °C-SO3 km/h15.0 1013 hPa8.2 mm
24/09/2022 19:1514.8 °C91 %13.3 °C2 km/hSO19 km/h15.0 1013 hPa8.2 mm
24/09/2022 19:0314.8 °C90 %13.3 °C-OSO5 km/h15.0 1013 hPa8 mm
24/09/2022 19:0014.8 °C89 %13.3 °C-OSO19 km/h15.0 1013 hPa8 mm
24/09/2022 18:4815.1 °C87 %12.8 °C5 km/hSO13 km/h15.0 1013 hPa4.2 mm
24/09/2022 18:4515.2 °C85 %12.8 °C8 km/hSSO19 km/h15.0 1013 hPa2.2 mm
24/09/2022 18:3315.7 °C87 %13.9 °C-SO5 km/h15.6 1012 hPa1.4 mm
24/09/2022 18:3015.8 °C87 %13.9 °C2 km/hOSO19 km/h16.1 1012 hPa1.4 mm
24/09/2022 18:1816.1 °C86 %13.9 °C-OSO2 km/h16.1 1012 hPa1.4 mm
24/09/2022 18:1516.2 °C86 %13.9 °C-SSO19 km/h16.1 1012 hPa1.2 mm
24/09/2022 18:0316.7 °C82 %13.9 °C-SSO8 km/h16.7 1012 hPa1.2 mm
24/09/2022 18:0016.9 °C81 %13.9 °C2 km/hSSO19 km/h17.2 1012 hPa1.2 mm
24/09/2022 17:4817.8 °C76 %13.3 °C3 km/hS6 km/h17.8 1012 hPa-
24/09/2022 17:4518.1 °C75 %13.9 °C5 km/hSSO19 km/h18.3 1012 hPa-
24/09/2022 17:3318.6 °C69 %12.8 °C5 km/hS13 km/h18.3 1012 hPa-
24/09/2022 17:3018.7 °C68 %12.8 °C8 km/hSSO19 km/h18.9 1012 hPa-
24/09/2022 17:1818.9 °C66 %12.2 °C2 km/hSSO8 km/h18.9 1012 hPa-
24/09/2022 17:1518.9 °C65 %12.2 °C-NNO19 km/h18.9 1012 hPa-
24/09/2022 17:0319.2 °C64 %12.2 °C3 km/hOSO8 km/h19.4 1012 hPa-
24/09/2022 17:0019.3 °C64 %12.2 °C3 km/hSSO19 km/h19.4 1012 hPa-
24/09/2022 16:4819.7 °C62 %12.2 °C3 km/hSSO11 km/h19.4 1012 hPa-
24/09/2022 16:4519.9 °C61 %12.2 °C5 km/hS19 km/h20.0 1012 hPa-
24/09/2022 16:3320.2 °C64 %13.3 °C5 km/hSSO13 km/h20.0 1012 hPa-
24/09/2022 16:3019.9 °C62 %12.2 °C-OSO19 km/h20.0 1012 hPa-
24/09/2022 16:1819.4 °C63 %12.2 °C10 km/hSSO13 km/h19.4 1012 hPa-
24/09/2022 16:1619.4 °C64 %12.2 °C6 km/hSO19 km/h19.4 1012 hPa-
24/09/2022 16:0319.7 °C63 %12.2 °C3 km/hSO8 km/h19.4 1012 hPa-
24/09/2022 16:0019.8 °C63 %12.8 °C3 km/hSO19 km/h20.0 1012 hPa-
24/09/2022 15:4820.1 °C62 %12.2 °C2 km/hSO8 km/h20.0 1012 hPa-
24/09/2022 15:4620.1 °C62 %12.8 °C2 km/hSO19 km/h20.0 1012 hPa-
24/09/2022 15:3320.5 °C60 %12.2 °C2 km/hSO13 km/h20.6 1012 hPa-
24/09/2022 15:3120.6 °C59 %12.2 °C-SO19 km/h20.6 1012 hPa-
24/09/2022 15:1820.8 °C60 %12.8 °C5 km/hSO11 km/h20.6 1012 hPa-
24/09/2022 15:1620.8 °C60 %12.8 °C3 km/hNNO19 km/h21.1 1012 hPa-
24/09/2022 15:0120.1 °C60 %12.2 °C5 km/hSSO19 km/h20.0 1012 hPa-
24/09/2022 14:4719.8 °C62 %12.2 °C-SO8 km/h20.0 1012 hPa-
24/09/2022 14:4419.7 °C62 %12.2 °C2 km/hSO19 km/h19.4 1013 hPa-
24/09/2022 14:3219.7 °C60 %11.7 °C2 km/hSO13 km/h20.0 1013 hPa-
24/09/2022 14:3019.9 °C58 %11.1 °C8 km/hSO19 km/h20.0 1013 hPa-
24/09/2022 14:1720.0 °C59 %11.7 °C5 km/hNO19 km/h20.0 1013 hPa-
24/09/2022 14:1520.1 °C58 %11.7 °C8 km/hSSO19 km/h20.0 1013 hPa-
24/09/2022 14:0320.2 °C58 %11.7 °C-OSO8 km/h20.0 1013 hPa-
24/09/2022 14:0020.2 °C58 %11.7 °C2 km/hSO16 km/h20.0 1013 hPa-
24/09/2022 13:4819.8 °C59 %11.7 °C2 km/hNE8 km/h20.0 1013 hPa-
24/09/2022 13:4519.4 °C60 %11.1 °C3 km/hSSE13 km/h19.4 1013 hPa-
24/09/2022 13:3319.4 °C60 %11.1 °C8 km/hOSO10 km/h19.4 1013 hPa-
24/09/2022 13:3019.4 °C60 %11.1 °C2 km/hSO13 km/h19.4 1013 hPa-
24/09/2022 13:1819.3 °C60 %11.1 °C5 km/hSSO11 km/h19.4 1013 hPa-
24/09/2022 13:1419.2 °C60 %11.1 °C-SO13 km/h19.4 1013 hPa-
24/09/2022 13:0319.1 °C63 %11.7 °C10 km/hSO13 km/h18.9 1013 hPa-
24/09/2022 13:0018.7 °C64 %11.7 °C2 km/hSO11 km/h18.9 1013 hPa-
24/09/2022 12:4818.3 °C62 %10.6 °C6 km/hSO11 km/h18.3 1013 hPa-
24/09/2022 12:4518.3 °C62 %11.1 °C8 km/hSSO10 km/h18.3 1013 hPa-
24/09/2022 12:3318.3 °C63 %11.1 °C6 km/hSO6 km/h18.3 1013 hPa-
24/09/2022 12:3018.3 °C65 %11.7 °C3 km/hSO10 km/h18.3 1013 hPa-
24/09/2022 12:1818.2 °C64 %11.1 °C2 km/hN5 km/h18.3 1014 hPa-
24/09/2022 12:1518.2 °C66 %11.7 °C-SO10 km/h18.3 1013 hPa-
24/09/2022 12:0317.4 °C68 %11.7 °C5 km/hSO8 km/h17.2 1014 hPa-
24/09/2022 12:0017.3 °C69 %11.7 °C2 km/hSSO10 km/h17.2 1014 hPa-
24/09/2022 11:4817.4 °C69 %11.7 °C5 km/hSO8 km/h17.2 1014 hPa-
24/09/2022 11:4517.3 °C69 %11.7 °C2 km/hSO10 km/h17.2 1014 hPa-
24/09/2022 11:3317.8 °C68 %11.7 °C-S8 km/h17.8 1013 hPa-
24/09/2022 11:3017.7 °C68 %11.7 °C-SE8 km/h17.8 1013 hPa-
24/09/2022 11:1816.9 °C72 %11.7 °C5 km/hSO6 km/h16.7 1013 hPa-
24/09/2022 11:1516.5 °C71 %11.1 °C3 km/hSO8 km/h16.7 1013 hPa-
24/09/2022 11:0316.1 °C76 %11.7 °C---16.1 1013 hPa-
24/09/2022 11:0015.9 °C76 %11.7 °C-SO8 km/h16.1 1014 hPa-
24/09/2022 10:4815.4 °C79 %11.7 °C---15.6 1013 hPa-
24/09/2022 10:4515.3 °C80 %11.7 °C-SO8 km/h15.6 1013 hPa-
24/09/2022 10:3214.8 °C81 %11.7 °C3 km/hSO6 km/h15.0 1013 hPa-
24/09/2022 10:3014.8 °C82 %11.7 °C3 km/hSO8 km/h15.0 1014 hPa-
24/09/2022 10:1814.4 °C83 %11.7 °C5 km/hSO8 km/h14.4 1013 hPa-
24/09/2022 10:1514.2 °C86 %11.7 °C-S3 km/h14.4 1013 hPa-
24/09/2022 10:0313.6 °C86 %11.1 °C---13.3 1013 hPa-
24/09/2022 10:0013.4 °C87 %11.1 °C---13.3 1014 hPa-
24/09/2022 09:4812.7 °C89 %11.1 °C---12.8 1013 hPa-
24/09/2022 09:4512.7 °C89 %11.1 °C---12.8 1013 hPa-
24/09/2022 09:3312.4 °C92 %11.1 °C---12.2 1013 hPa-
24/09/2022 09:3012.2 °C93 %11.1 °C---12.2 1013 hPa-
24/09/2022 09:1811.4 °C94 %10.6 °C---11.7 1013 hPa-
24/09/2022 09:1511.1 °C94 %10.0 °C---11.1 1013 hPa-
24/09/2022 09:0310.3 °C95 %9.4 °C---10.6 1013 hPa-
24/09/2022 09:0110.2 °C95 %9.4 °C---10.0 1013 hPa-
24/09/2022 08:489.7 °C95 %8.9 °C---9.4 1013 hPa-
24/09/2022 08:469.6 °C95 %8.9 °C---9.4 1013 hPa-
24/09/2022 08:349.1 °C95 %8.3 °C---8.9 1013 hPa-
24/09/2022 08:319.1 °C95 %8.3 °C---8.9 1013 hPa-
24/09/2022 08:189.0 °C95 %8.3 °C---8.9 1013 hPa-
24/09/2022 08:168.9 °C95 %8.3 °C---8.9 1013 hPa-
24/09/2022 08:038.8 °C95 %8.3 °C---8.9 1013 hPa-
24/09/2022 08:018.8 °C95 %8.3 °C---8.9 1013 hPa-
24/09/2022 07:488.6 °C95 %7.8 °C---8.9 1013 hPa-
24/09/2022 07:468.6 °C94 %7.8 °C---8.9 1013 hPa-
24/09/2022 07:338.9 °C94 %8.3 °C---8.9 1013 hPa-
24/09/2022 07:319.0 °C95 %8.3 °C---8.9 1013 hPa-
24/09/2022 07:189.2 °C95 %8.3 °C---9.4 1013 hPa-
24/09/2022 07:169.2 °C95 %8.3 °C---9.4 1013 hPa-
24/09/2022 07:039.4 °C95 %8.9 °C---9.4 1013 hPa-
24/09/2022 07:019.3 °C95 %8.9 °C---9.4 1013 hPa-
24/09/2022 06:489.3 °C95 %8.3 °C---9.4 1013 hPa-
24/09/2022 06:469.2 °C95 %8.3 °C---9.4 1013 hPa-
24/09/2022 06:329.2 °C95 %8.3 °C---9.4 1013 hPa-
24/09/2022 06:309.2 °C95 %8.3 °C---9.4 1013 hPa-
24/09/2022 06:179.2 °C95 %8.3 °C---9.4 1013 hPa-
24/09/2022 06:159.1 °C95 %8.3 °C---8.9 1013 hPa-
24/09/2022 06:028.9 °C95 %8.3 °C---8.9 1013 hPa-
24/09/2022 06:008.9 °C94 %7.8 °C---8.9 1013 hPa-
24/09/2022 05:478.7 °C94 %7.8 °C---8.9 1013 hPa-
24/09/2022 05:458.7 °C94 %7.8 °C---8.9 1013 hPa-
24/09/2022 05:328.6 °C94 %7.8 °C---8.3 1013 hPa-
24/09/2022 05:308.5 °C94 %7.8 °C---8.3 1013 hPa-
24/09/2022 05:188.3 °C94 %7.2 °C---8.3 1013 hPa-
24/09/2022 05:158.3 °C94 %7.2 °C---8.3 1013 hPa-
24/09/2022 05:028.2 °C94 %7.2 °C---8.3 1013 hPa-
24/09/2022 05:008.2 °C94 %7.2 °C---8.3 1013 hPa-
24/09/2022 04:488.1 °C93 %7.2 °C---8.3 1013 hPa-
24/09/2022 04:458.1 °C93 %7.2 °C---8.3 1013 hPa-
24/09/2022 04:338.4 °C93 %7.2 °C---8.3 1013 hPa-
24/09/2022 04:308.4 °C92 %7.2 °C---8.3 1013 hPa-
24/09/2022 04:188.7 °C92 %7.8 °C---8.9 1013 hPa-
24/09/2022 04:158.8 °C92 %7.8 °C---8.9 1013 hPa-
24/09/2022 04:039.3 °C93 %8.3 °C---9.4 1013 hPa-
24/09/2022 04:009.3 °C93 %8.3 °C---9.4 1013 hPa-
24/09/2022 03:489.2 °C92 %7.8 °C---9.4 1013 hPa-
24/09/2022 03:459.3 °C92 %8.3 °C---9.4 1013 hPa-
24/09/2022 03:339.8 °C92 %8.9 °C---10.0 1013 hPa-
24/09/2022 03:309.9 °C92 %8.9 °C---10.0 1013 hPa-
24/09/2022 03:1810.2 °C92 %8.9 °C---10.0 1014 hPa-
24/09/2022 03:1510.2 °C92 %8.9 °C---10.0 1014 hPa-
24/09/2022 03:0310.4 °C93 %9.4 °C---10.6 1013 hPa-
24/09/2022 03:0010.4 °C93 %9.4 °C---10.6 1013 hPa-
24/09/2022 02:4810.3 °C93 %9.4 °C---10.6 1014 hPa-
24/09/2022 02:4510.3 °C93 %9.4 °C---10.6 1014 hPa-
24/09/2022 02:3310.2 °C93 %9.4 °C---10.0 1014 hPa-
24/09/2022 02:3010.2 °C93 %9.4 °C---10.0 1014 hPa-
24/09/2022 02:1810.2 °C92 %8.9 °C---10.0 1014 hPa-
24/09/2022 02:1510.2 °C92 %8.9 °C---10.0 1014 hPa-
24/09/2022 02:0310.3 °C92 %8.9 °C---10.6 1014 hPa-
24/09/2022 02:0010.3 °C92 %8.9 °C---10.6 1014 hPa-
24/09/2022 01:4810.3 °C92 %8.9 °C---10.6 1014 hPa-
24/09/2022 01:4510.4 °C92 %9.4 °C---10.6 1014 hPa-
24/09/2022 01:3310.6 °C92 %9.4 °C---10.6 1014 hPa-
24/09/2022 01:3010.6 °C92 %9.4 °C---10.6 1014 hPa-
24/09/2022 01:1810.4 °C92 %9.4 °C---10.6 1014 hPa-
24/09/2022 01:1510.4 °C92 %9.4 °C---10.6 1014 hPa-
24/09/2022 01:0310.5 °C92 %9.4 °C---10.6 1014 hPa-
24/09/2022 01:0010.5 °C92 %9.4 °C---10.6 1014 hPa-
24/09/2022 00:4810.6 °C92 %9.4 °C---10.6 1014 hPa-
24/09/2022 00:4510.6 °C92 %9.4 °C---10.6 1014 hPa-
24/09/2022 00:3310.6 °C91 %9.4 °C---10.6 1014 hPa-
24/09/2022 00:3010.6 °C91 %9.4 °C---10.6 1014 hPa-
24/09/2022 00:1810.6 °C91 %9.4 °C---10.6 1014 hPa-
24/09/2022 00:1510.6 °C91 %9.4 °C---10.6 1014 hPa-
24/09/2022 00:0410.7 °C91 %9.4 °C---10.6 1014 hPa-
24/09/2022 00:0110.7 °C91 %9.4 °C---10.6 1014 hPa-


Minima :

Température : 8.1 °C
Humidité : 58 %
Point de rosée : 7.2 °C
Vent moyen : 2 km/h
Windchill : 8.3
Pression atm. : 1012 hPa
Maxima :

Température : 20.8 °C
Humidité : 95 %
Point de rosée : 13.9 °C
Vent moyen : 10 km/h
Windchill : 21.1
Pression atm. : 1014 hPa
Rafales max : 19 km/h
Cumul de pluie sur 24H : 8.8 mm

Villegouin est une commune du département Indre (36).
La station météorologique du réseau de l'association la plus proche de Villegouin est celle de Levroux



Icône Facebook Association Météo Centre Icône Twitter Association Météo Centre Icône Chaîne Youtube Association Météo Centre Icône contact Association Météo Centre Icône Insta Association Météo Centre